sensor_id;sensor_type;location;lat;lon;timestamp;temperature;humidity
1678;DHT22;6034;46.864;15.216;2024-03-23T06:40:47;12.40;90.20
1678;DHT22;6034;46.864;15.216;2024-03-23T06:43:16;12.40;90.50
1678;DHT22;6034;46.864;15.216;2024-03-23T06:45:43;12.50;90.00
1678;DHT22;6034;46.864;15.216;2024-03-23T06:48:11;12.40;90.00
1678;DHT22;6034;46.864;15.216;2024-03-23T06:50:38;12.40;87.80
1678;DHT22;6034;46.864;15.216;2024-03-23T06:53:05;12.40;88.50
1678;DHT22;6034;46.864;15.216;2024-03-23T06:55:31;12.40;88.00
1678;DHT22;6034;46.864;15.216;2024-03-23T06:58:01;12.30;88.20
1678;DHT22;6034;46.864;15.216;2024-03-23T07:00:27;12.40;88.90
1678;DHT22;6034;46.864;15.216;2024-03-23T07:02:54;12.40;90.20
1678;DHT22;6034;46.864;15.216;2024-03-23T07:05:20;12.40;89.50
1678;DHT22;6034;46.864;15.216;2024-03-23T07:07:48;12.50;90.10
1678;DHT22;6034;46.864;15.216;2024-03-23T07:10:14;12.50;90.60
1678;DHT22;6034;46.864;15.216;2024-03-23T07:12:42;12.50;90.20
1678;DHT22;6034;46.864;15.216;2024-03-23T07:15:12;12.50;89.50
1678;DHT22;6034;46.864;15.216;2024-03-23T07:17:50;12.40;90.00
1678;DHT22;6034;46.864;15.216;2024-03-23T07:20:18;12.50;90.20
1678;DHT22;6034;46.864;15.216;2024-03-23T07:22:45;12.50;89.50
1678;DHT22;6034;46.864;15.216;2024-03-23T07:25:14;12.40;90.00
1678;DHT22;6034;46.864;15.216;2024-03-23T07:27:42;12.40;90.00
1678;DHT22;6034;46.864;15.216;2024-03-23T07:30:11;12.30;90.80
1678;DHT22;6034;46.864;15.216;2024-03-23T07:32:38;12.50;90.70
1678;DHT22;6034;46.864;15.216;2024-03-23T07:35:05;12.60;91.30
1678;DHT22;6034;46.864;15.216;2024-03-23T07:37:35;12.70;92.70
1678;DHT22;6034;46.864;15.216;2024-03-23T07:40:01;12.80;93.30
1678;DHT22;6034;46.864;15.216;2024-03-23T07:42:29;12.80;92.70
1678;DHT22;6034;46.864;15.216;2024-03-23T07:44:59;12.80;92.50
1678;DHT22;6034;46.864;15.216;2024-03-23T07:47:27;12.80;92.60
1678;DHT22;6034;46.864;15.216;2024-03-23T07:49:54;12.80;92.80
1678;DHT22;6034;46.864;15.216;2024-03-23T07:52:21;12.80;92.60
1678;DHT22;6034;46.864;15.216;2024-03-23T07:54:47;12.90;93.00
1678;DHT22;6034;46.864;15.216;2024-03-23T07:57:15;12.90;93.40
1678;DHT22;6034;46.864;15.216;2024-03-23T07:59:42;12.90;93.40
1678;DHT22;6034;46.864;15.216;2024-03-23T08:02:12;12.70;93.50
1678;DHT22;6034;46.864;15.216;2024-03-23T08:04:40;12.70;93.90
1678;DHT22;6034;46.864;15.216;2024-03-23T08:07:08;12.80;94.60
1678;DHT22;6034;46.864;15.216;2024-03-23T08:09:34;12.90;94.60
1678;DHT22;6034;46.864;15.216;2024-03-23T08:12:01;12.80;94.20
1678;DHT22;6034;46.864;15.216;2024-03-23T08:14:28;12.80;94.20
1678;DHT22;6034;46.864;15.216;2024-03-23T08:16:56;12.70;94.40
1678;DHT22;6034;46.864;15.216;2024-03-23T08:19:23;12.80;94.70
1678;DHT22;6034;46.864;15.216;2024-03-23T08:21:52;12.90;94.60
1678;DHT22;6034;46.864;15.216;2024-03-23T08:24:20;13.00;94.60
1678;DHT22;6034;46.864;15.216;2024-03-23T08:26:47;13.10;95.30
1678;DHT22;6034;46.864;15.216;2024-03-23T08:29:14;13.20;95.00
1678;DHT22;6034;46.864;15.216;2024-03-23T08:31:41;13.20;94.80
1678;DHT22;6034;46.864;15.216;2024-03-23T08:34:07;13.30;95.30
1678;DHT22;6034;46.864;15.216;2024-03-23T08:36:35;13.40;95.50
1678;DHT22;6034;46.864;15.216;2024-03-23T08:39:02;13.30;95.10
1678;DHT22;6034;46.864;15.216;2024-03-23T08:41:30;13.50;95.50
1678;DHT22;6034;46.864;15.216;2024-03-23T08:43:56;13.80;95.50
1678;DHT22;6034;46.864;15.216;2024-03-23T08:46:24;14.10;95.30
1678;DHT22;6034;46.864;15.216;2024-03-23T08:48:50;14.20;95.50
1678;DHT22;6034;46.864;15.216;2024-03-23T08:51:18;14.10;94.60
1678;DHT22;6034;46.864;15.216;2024-03-23T08:53:45;14.20;94.70
1678;DHT22;6034;46.864;15.216;2024-03-23T08:56:14;14.20;94.70
1678;DHT22;6034;46.864;15.216;2024-03-23T08:58:41;14.40;94.10
1678;DHT22;6034;46.864;15.216;2024-03-23T09:01:10;14.50;93.50
1678;DHT22;6034;46.864;15.216;2024-03-23T09:03:39;14.60;92.60
1678;DHT22;6034;46.864;15.216;2024-03-23T09:06:07;14.80;93.40
1678;DHT22;6034;46.864;15.216;2024-03-23T09:08:34;15.10;93.20
1678;DHT22;6034;46.864;15.216;2024-03-23T09:11:04;15.10;93.90
1678;DHT22;6034;46.864;15.216;2024-03-23T09:13:33;15.20;93.30
1678;DHT22;6034;46.864;15.216;2024-03-23T09:16:01;15.30;94.10
1678;DHT22;6034;46.864;15.216;2024-03-23T09:18:27;15.20;94.20
1678;DHT22;6034;46.864;15.216;2024-03-23T09:20:55;15.10;93.50
1678;DHT22;6034;46.864;15.216;2024-03-23T09:23:21;15.10;93.70
1678;DHT22;6034;46.864;15.216;2024-03-23T09:25:48;15.30;93.90
1678;DHT22;6034;46.864;15.216;2024-03-23T09:28:15;15.50;93.90
1678;DHT22;6034;46.864;15.216;2024-03-23T09:30:43;15.90;91.40
1678;DHT22;6034;46.864;15.216;2024-03-23T09:33:10;15.90;91.80
1678;DHT22;6034;46.864;15.216;2024-03-23T09:35:38;16.00;92.40
1678;DHT22;6034;46.864;15.216;2024-03-23T09:38:04;15.90;92.70
1678;DHT22;6034;46.864;15.216;2024-03-23T09:40:33;15.80;91.90
1678;DHT22;6034;46.864;15.216;2024-03-23T09:42:59;15.90;92.40
1678;DHT22;6034;46.864;15.216;2024-03-23T09:45:28;16.00;91.10
1678;DHT22;6034;46.864;15.216;2024-03-23T09:47:56;16.30;90.80
1678;DHT22;6034;46.864;15.216;2024-03-23T09:50:24;16.50;90.50
1678;DHT22;6034;46.864;15.216;2024-03-23T09:52:50;16.70;91.10
1678;DHT22;6034;46.864;15.216;2024-03-23T09:55:17;16.50;83.20
1678;DHT22;6034;46.864;15.216;2024-03-23T09:57:44;16.10;85.40
1678;DHT22;6034;46.864;15.216;2024-03-23T10:00:12;15.70;83.90
1678;DHT22;6034;46.864;15.216;2024-03-23T10:02:39;15.70;83.80
1678;DHT22;6034;46.864;15.216;2024-03-23T10:05:20;15.90;87.50
1678;DHT22;6034;46.864;15.216;2024-03-23T10:07:48;16.10;87.00
1678;DHT22;6034;46.864;15.216;2024-03-23T10:10:16;16.10;83.90
1678;DHT22;6034;46.864;15.216;2024-03-23T10:12:45;16.20;83.30
1678;DHT22;6034;46.864;15.216;2024-03-23T10:15:19;16.30;84.50
1678;DHT22;6034;46.864;15.216;2024-03-23T10:17:45;16.30;84.50
1678;DHT22;6034;46.864;15.216;2024-03-23T10:20:19;16.50;87.10
1678;DHT22;6034;46.864;15.216;2024-03-23T10:22:46;16.50;87.40
1678;DHT22;6034;46.864;15.216;2024-03-23T10:25:14;16.80;86.70
1678;DHT22;6034;46.864;15.216;2024-03-23T10:27:40;17.00;84.70
1678;DHT22;6034;46.864;15.216;2024-03-23T10:30:10;17.10;85.50
1678;DHT22;6034;46.864;15.216;2024-03-23T10:32:37;17.00;83.70
1678;DHT22;6034;46.864;15.216;2024-03-23T10:35:17;16.90;84.70
1678;DHT22;6034;46.864;15.216;2024-03-23T10:37:45;16.90;84.80
1678;DHT22;6034;46.864;15.216;2024-03-23T10:40:13;17.10;85.70
1678;DHT22;6034;46.864;15.216;2024-03-23T10:42:40;17.20;85.40
1678;DHT22;6034;46.864;15.216;2024-03-23T10:45:08;17.10;84.20
1678;DHT22;6034;46.864;15.216;2024-03-23T10:47:36;16.80;82.20
1678;DHT22;6034;46.864;15.216;2024-03-23T10:50:03;16.70;85.00
1678;DHT22;6034;46.864;15.216;2024-03-23T10:52:33;16.80;84.20
1678;DHT22;6034;46.864;15.216;2024-03-23T10:55:02;17.10;84.50
1678;DHT22;6034;46.864;15.216;2024-03-23T10:57:36;17.30;84.30
1678;DHT22;6034;46.864;15.216;2024-03-23T11:00:05;17.50;83.00
1678;DHT22;6034;46.864;15.216;2024-03-23T11:02:33;17.20;81.20
1678;DHT22;6034;46.864;15.216;2024-03-23T11:04:59;17.40;84.70
1678;DHT22;6034;46.864;15.216;2024-03-23T11:07:32;17.40;83.20
1678;DHT22;6034;46.864;15.216;2024-03-23T11:09:59;17.30;82.40
1678;DHT22;6034;46.864;15.216;2024-03-23T11:12:31;17.50;82.50
1678;DHT22;6034;46.864;15.216;2024-03-23T11:15:03;17.70;82.90
1678;DHT22;6034;46.864;15.216;2024-03-23T11:17:31;17.90;82.20
1678;DHT22;6034;46.864;15.216;2024-03-23T11:19:58;18.10;83.70
1678;DHT22;6034;46.864;15.216;2024-03-23T11:22:47;18.10;81.90
1678;DHT22;6034;46.864;15.216;2024-03-23T11:25:17;18.20;84.60
1678;DHT22;6034;46.864;15.216;2024-03-23T11:27:47;18.40;85.10
1678;DHT22;6034;46.864;15.216;2024-03-23T11:30:15;18.50;85.50
1678;DHT22;6034;46.864;15.216;2024-03-23T11:32:44;18.30;84.50
1678;DHT22;6034;46.864;15.216;2024-03-23T11:35:11;18.20;85.70
1678;DHT22;6034;46.864;15.216;2024-03-23T11:38:06;18.30;83.40
1678;DHT22;6034;46.864;15.216;2024-03-23T11:40:34;18.60;80.40
1678;DHT22;6034;46.864;15.216;2024-03-23T11:43:02;18.60;80.90
1678;DHT22;6034;46.864;15.216;2024-03-23T11:45:34;18.70;80.70
1678;DHT22;6034;46.864;15.216;2024-03-23T11:48:06;18.80;81.10
1678;DHT22;6034;46.864;15.216;2024-03-23T11:50:34;19.10;81.30
1678;DHT22;6034;46.864;15.216;2024-03-23T11:53:19;19.00;81.30
1678;DHT22;6034;46.864;15.216;2024-03-23T11:55:47;19.10;79.30
1678;DHT22;6034;46.864;15.216;2024-03-23T11:58:16;19.00;80.30
1678;DHT22;6034;46.864;15.216;2024-03-23T12:00:48;19.10;79.20
1678;DHT22;6034;46.864;15.216;2024-03-23T12:03:16;19.10;79.80
1678;DHT22;6034;46.864;15.216;2024-03-23T12:05:48;19.30;80.30
1678;DHT22;6034;46.864;15.216;2024-03-23T12:08:18;19.30;76.50
1678;DHT22;6034;46.864;15.216;2024-03-23T12:10:48;19.30;76.10
1678;DHT22;6034;46.864;15.216;2024-03-23T12:13:17;19.30;77.10
1678;DHT22;6034;46.864;15.216;2024-03-23T12:15:44;19.10;75.30
1678;DHT22;6034;46.864;15.216;2024-03-23T12:18:12;19.00;74.30
1678;DHT22;6034;46.864;15.216;2024-03-23T12:20:39;19.30;74.80
1678;DHT22;6034;46.864;15.216;2024-03-23T12:23:11;19.30;75.40
1678;DHT22;6034;46.864;15.216;2024-03-23T12:25:39;19.50;72.90
1678;DHT22;6034;46.864;15.216;2024-03-23T12:28:07;19.50;71.50
1678;DHT22;6034;46.864;15.216;2024-03-23T12:30:35;19.50;71.50
1678;DHT22;6034;46.864;15.216;2024-03-23T12:33:02;19.30;65.90
1678;DHT22;6034;46.864;15.216;2024-03-23T12:35:29;19.20;67.70
1678;DHT22;6034;46.864;15.216;2024-03-23T12:37:56;19.10;67.20
1678;DHT22;6034;46.864;15.216;2024-03-23T12:40:23;19.10;69.20
1678;DHT22;6034;46.864;15.216;2024-03-23T12:42:52;19.00;65.10
1678;DHT22;6034;46.864;15.216;2024-03-23T12:45:19;19.00;69.30
1678;DHT22;6034;46.864;15.216;2024-03-23T12:47:46;18.90;66.70
1678;DHT22;6034;46.864;15.216;2024-03-23T12:50:12;19.00;69.00
1678;DHT22;6034;46.864;15.216;2024-03-23T12:52:40;18.90;69.90
1678;DHT22;6034;46.864;15.216;2024-03-23T12:55:07;19.00;70.40
1678;DHT22;6034;46.864;15.216;2024-03-23T12:57:34;19.00;68.30
1678;DHT22;6034;46.864;15.216;2024-03-23T13:00:03;18.90;66.30
1678;DHT22;6034;46.864;15.216;2024-03-23T13:02:30;18.80;66.80
1678;DHT22;6034;46.864;15.216;2024-03-23T13:04:57;18.80;67.10
1678;DHT22;6034;46.864;15.216;2024-03-23T13:07:24;18.80;69.60
1678;DHT22;6034;46.864;15.216;2024-03-23T13:09:51;18.80;67.50
1678;DHT22;6034;46.864;15.216;2024-03-23T13:12:19;19.00;68.30
1678;DHT22;6034;46.864;15.216;2024-03-23T13:14:46;19.20;67.00
1678;DHT22;6034;46.864;15.216;2024-03-23T13:17:15;19.40;68.30
1678;DHT22;6034;46.864;15.216;2024-03-23T13:19:42;19.50;70.40
1678;DHT22;6034;46.864;15.216;2024-03-23T13:22:09;19.50;67.70
1678;DHT22;6034;46.864;15.216;2024-03-23T13:24:38;19.50;69.10
1678;DHT22;6034;46.864;15.216;2024-03-23T13:27:05;19.60;68.00
1678;DHT22;6034;46.864;15.216;2024-03-23T13:29:33;19.60;67.70
1678;DHT22;6034;46.864;15.216;2024-03-23T13:32:01;19.50;66.30
1678;DHT22;6034;46.864;15.216;2024-03-23T13:34:29;19.60;68.80
1678;DHT22;6034;46.864;15.216;2024-03-23T13:36:57;19.60;66.70
1678;DHT22;6034;46.864;15.216;2024-03-23T13:39:24;19.60;67.70
1678;DHT22;6034;46.864;15.216;2024-03-23T13:41:53;19.70;66.70
1678;DHT22;6034;46.864;15.216;2024-03-23T13:44:20;19.70;65.50
1678;DHT22;6034;46.864;15.216;2024-03-23T13:46:48;19.80;66.90
1678;DHT22;6034;46.864;15.216;2024-03-23T13:49:25;19.80;65.40
1678;DHT22;6034;46.864;15.216;2024-03-23T13:51:55;19.80;66.30
1678;DHT22;6034;46.864;15.216;2024-03-23T13:54:23;19.90;66.50
1678;DHT22;6034;46.864;15.216;2024-03-23T13:56:52;19.80;65.60
1678;DHT22;6034;46.864;15.216;2024-03-23T13:59:18;19.80;66.00
1678;DHT22;6034;46.864;15.216;2024-03-23T14:01:47;19.80;70.40
1678;DHT22;6034;46.864;15.216;2024-03-23T14:04:13;19.80;66.90
1678;DHT22;6034;46.864;15.216;2024-03-23T14:06:43;19.80;66.80
1678;DHT22;6034;46.864;15.216;2024-03-23T14:09:12;19.90;67.10
1678;DHT22;6034;46.864;15.216;2024-03-23T14:11:40;19.80;66.40
1678;DHT22;6034;46.864;15.216;2024-03-23T14:14:07;19.80;66.90
1678;DHT22;6034;46.864;15.216;2024-03-23T14:16:35;19.80;68.10
1678;DHT22;6034;46.864;15.216;2024-03-23T14:19:01;19.80;70.10
1678;DHT22;6034;46.864;15.216;2024-03-23T14:21:30;19.80;70.60
1678;DHT22;6034;46.864;15.216;2024-03-23T14:23:57;19.70;69.70
1678;DHT22;6034;46.864;15.216;2024-03-23T14:26:26;19.80;69.90
1678;DHT22;6034;46.864;15.216;2024-03-23T14:28:52;19.80;69.90
1678;DHT22;6034;46.864;15.216;2024-03-23T14:31:19;19.80;67.50
1678;DHT22;6034;46.864;15.216;2024-03-23T14:33:46;19.70;66.80
1678;DHT22;6034;46.864;15.216;2024-03-23T14:36:14;19.70;68.90
1678;DHT22;6034;46.864;15.216;2024-03-23T14:38:40;19.60;67.30
1678;DHT22;6034;46.864;15.216;2024-03-23T14:41:08;19.60;67.20
1678;DHT22;6034;46.864;15.216;2024-03-23T14:43:36;19.50;69.00
1678;DHT22;6034;46.864;15.216;2024-03-23T14:46:07;19.40;72.50
1678;DHT22;6034;46.864;15.216;2024-03-23T14:48:34;19.50;73.00
1678;DHT22;6034;46.864;15.216;2024-03-23T14:51:02;19.70;75.20
1678;DHT22;6034;46.864;15.216;2024-03-23T14:53:31;19.40;75.90
1678;DHT22;6034;46.864;15.216;2024-03-23T14:55:59;19.50;78.50
1678;DHT22;6034;46.864;15.216;2024-03-23T14:58:27;19.40;84.00
1678;DHT22;6034;46.864;15.216;2024-03-23T15:01:01;19.40;92.10
1678;DHT22;6034;46.864;15.216;2024-03-23T15:03:28;19.50;92.20
1678;DHT22;6034;46.864;15.216;2024-03-23T15:05:56;19.40;90.60
1678;DHT22;6034;46.864;15.216;2024-03-23T15:08:22;19.50;84.40
1678;DHT22;6034;46.864;15.216;2024-03-23T15:10:50;19.10;78.70
1678;DHT22;6034;46.864;15.216;2024-03-23T15:13:17;19.10;71.90
1678;DHT22;6034;46.864;15.216;2024-03-23T15:15:45;19.00;68.40
1678;DHT22;6034;46.864;15.216;2024-03-23T15:18:13;18.70;66.30
1678;DHT22;6034;46.864;15.216;2024-03-23T15:20:41;18.60;65.10
1678;DHT22;6034;46.864;15.216;2024-03-23T15:23:07;18.60;66.10
1678;DHT22;6034;46.864;15.216;2024-03-23T15:25:35;18.60;66.90
1678;DHT22;6034;46.864;15.216;2024-03-23T15:28:01;18.60;67.00
1678;DHT22;6034;46.864;15.216;2024-03-23T15:30:28;18.50;66.30
1678;DHT22;6034;46.864;15.216;2024-03-23T15:32:55;18.50;67.10
1678;DHT22;6034;46.864;15.216;2024-03-23T15:35:24;18.50;67.00
1678;DHT22;6034;46.864;15.216;2024-03-23T15:37:50;18.50;67.90
1678;DHT22;6034;46.864;15.216;2024-03-23T15:40:18;18.40;67.00
1678;DHT22;6034;46.864;15.216;2024-03-23T15:42:44;18.30;66.30
1678;DHT22;6034;46.864;15.216;2024-03-23T15:45:12;18.30;67.00
1678;DHT22;6034;46.864;15.216;2024-03-23T15:47:38;18.20;67.60
1678;DHT22;6034;46.864;15.216;2024-03-23T15:50:07;18.20;69.60
1678;DHT22;6034;46.864;15.216;2024-03-23T15:52:36;18.10;68.60
1678;DHT22;6034;46.864;15.216;2024-03-23T15:55:04;18.10;69.30
1678;DHT22;6034;46.864;15.216;2024-03-23T15:57:33;18.00;68.80
1678;DHT22;6034;46.864;15.216;2024-03-23T16:00:01;18.00;70.10
1678;DHT22;6034;46.864;15.216;2024-03-23T16:02:28;17.70;68.30
1678;DHT22;6034;46.864;15.216;2024-03-23T16:04:55;17.30;70.00
1678;DHT22;6034;46.864;15.216;2024-03-23T16:07:24;16.70;71.10
1678;DHT22;6034;46.864;15.216;2024-03-23T16:09:52;16.30;72.70
1678;DHT22;6034;46.864;15.216;2024-03-23T16:12:19;15.80;73.20
1678;DHT22;6034;46.864;15.216;2024-03-23T16:14:46;15.70;73.70
1678;DHT22;6034;46.864;15.216;2024-03-23T16:17:13;15.30;72.90
1678;DHT22;6034;46.864;15.216;2024-03-23T16:19:40;15.10;72.10
1678;DHT22;6034;46.864;15.216;2024-03-23T16:22:07;15.20;72.60
1678;DHT22;6034;46.864;15.216;2024-03-23T16:24:34;15.00;73.20
1678;DHT22;6034;46.864;15.216;2024-03-23T16:27:02;14.60;73.40
1678;DHT22;6034;46.864;15.216;2024-03-23T16:29:30;14.40;74.40
1678;DHT22;6034;46.864;15.216;2024-03-23T16:31:56;14.30;70.70
1678;DHT22;6034;46.864;15.216;2024-03-23T16:34:23;14.20;70.30
1678;DHT22;6034;46.864;15.216;2024-03-23T16:36:50;13.90;69.70
1678;DHT22;6034;46.864;15.216;2024-03-23T16:39:18;13.70;69.60
1678;DHT22;6034;46.864;15.216;2024-03-23T16:41:44;13.40;71.00
1678;DHT22;6034;46.864;15.216;2024-03-23T16:44:13;13.20;72.60
1678;DHT22;6034;46.864;15.216;2024-03-23T16:46:40;12.90;74.00
1678;DHT22;6034;46.864;15.216;2024-03-23T16:49:09;12.70;75.70
1678;DHT22;6034;46.864;15.216;2024-03-23T16:51:35;12.30;77.00
1678;DHT22;6034;46.864;15.216;2024-03-23T16:54:03;12.20;77.70
1678;DHT22;6034;46.864;15.216;2024-03-23T16:56:30;12.20;78.70
1678;DHT22;6034;46.864;15.216;2024-03-23T16:58:57;11.90;80.40
1678;DHT22;6034;46.864;15.216;2024-03-23T17:01:25;11.10;85.00
1678;DHT22;6034;46.864;15.216;2024-03-23T17:03:53;11.00;88.50
1678;DHT22;6034;46.864;15.216;2024-03-23T17:06:20;10.90;91.80
1678;DHT22;6034;46.864;15.216;2024-03-23T17:08:49;10.20;93.20
1678;DHT22;6034;46.864;15.216;2024-03-23T17:11:16;10.60;93.00
1678;DHT22;6034;46.864;15.216;2024-03-23T17:13:44;10.50;93.30
1678;DHT22;6034;46.864;15.216;2024-03-23T17:16:10;10.40;92.00
1678;DHT22;6034;46.864;15.216;2024-03-23T17:18:40;9.70;92.70
1678;DHT22;6034;46.864;15.216;2024-03-23T17:21:06;9.60;93.60
1678;DHT22;6034;46.864;15.216;2024-03-23T17:23:34;9.90;94.30
1678;DHT22;6034;46.864;15.216;2024-03-23T17:26:01;9.90;95.20
1678;DHT22;6034;46.864;15.216;2024-03-23T17:28:29;10.20;93.40
1678;DHT22;6034;46.864;15.216;2024-03-23T17:30:55;10.40;92.50
1678;DHT22;6034;46.864;15.216;2024-03-23T17:33:23;10.40;92.80
1678;DHT22;6034;46.864;15.216;2024-03-23T17:35:51;10.30;95.30
1678;DHT22;6034;46.864;15.216;2024-03-23T17:38:18;10.40;95.70
1678;DHT22;6034;46.864;15.216;2024-03-23T17:40:45;10.20;95.30
1678;DHT22;6034;46.864;15.216;2024-03-23T17:43:13;10.10;95.60
1678;DHT22;6034;46.864;15.216;2024-03-23T17:45:41;9.80;95.50
1678;DHT22;6034;46.864;15.216;2024-03-23T17:48:07;9.60;96.60
1678;DHT22;6034;46.864;15.216;2024-03-23T17:50:35;10.20;95.60
1678;DHT22;6034;46.864;15.216;2024-03-23T17:53:02;10.20;95.80
1678;DHT22;6034;46.864;15.216;2024-03-23T17:55:30;10.20;95.00
1678;DHT22;6034;46.864;15.216;2024-03-23T17:57:57;9.90;95.70
1678;DHT22;6034;46.864;15.216;2024-03-23T18:00:27;9.50;95.80
1678;DHT22;6034;46.864;15.216;2024-03-23T18:02:53;9.70;96.00
1678;DHT22;6034;46.864;15.216;2024-03-23T18:05:21;9.90;95.80
1678;DHT22;6034;46.864;15.216;2024-03-23T18:07:47;9.90;94.90
1678;DHT22;6034;46.864;15.216;2024-03-23T18:10:17;9.60;97.00
1678;DHT22;6034;46.864;15.216;2024-03-23T18:12:43;9.50;96.30
1678;DHT22;6034;46.864;15.216;2024-03-23T18:15:13;9.50;96.70
1678;DHT22;6034;46.864;15.216;2024-03-23T18:17:40;8.90;98.10
1678;DHT22;6034;46.864;15.216;2024-03-23T18:20:07;9.10;96.50
1678;DHT22;6034;46.864;15.216;2024-03-23T18:22:35;9.40;96.60
1678;DHT22;6034;46.864;15.216;2024-03-23T18:25:03;9.40;98.10
1678;DHT22;6034;46.864;15.216;2024-03-23T18:27:33;9.60;98.10
1678;DHT22;6034;46.864;15.216;2024-03-23T18:30:00;9.40;97.30
1678;DHT22;6034;46.864;15.216;2024-03-23T18:32:26;9.30;96.90
1678;DHT22;6034;46.864;15.216;2024-03-23T18:34:54;9.40;96.90
1678;DHT22;6034;46.864;15.216;2024-03-23T18:37:20;9.40;98.00
1678;DHT22;6034;46.864;15.216;2024-03-23T18:39:48;9.50;97.50
1678;DHT22;6034;46.864;15.216;2024-03-23T18:42:14;9.30;96.70
1678;DHT22;6034;46.864;15.216;2024-03-23T18:44:43;9.30;98.40
1678;DHT22;6034;46.864;15.216;2024-03-23T18:47:09;9.40;99.00
1678;DHT22;6034;46.864;15.216;2024-03-23T18:49:37;9.30;98.40
1678;DHT22;6034;46.864;15.216;2024-03-23T18:52:04;9.10;97.30
1678;DHT22;6034;46.864;15.216;2024-03-23T18:54:33;9.10;98.10
1678;DHT22;6034;46.864;15.216;2024-03-23T18:56:59;8.70;99.30
1678;DHT22;6034;46.864;15.216;2024-03-23T18:59:27;8.90;99.90
1678;DHT22;6034;46.864;15.216;2024-03-23T19:01:54;9.10;99.80
1678;DHT22;6034;46.864;15.216;2024-03-23T19:04:22;9.10;99.30
1678;DHT22;6034;46.864;15.216;2024-03-23T19:06:48;9.10;97.90
1678;DHT22;6034;46.864;15.216;2024-03-23T19:09:16;8.80;98.60
1678;DHT22;6034;46.864;15.216;2024-03-23T19:11:42;9.00;99.10
1678;DHT22;6034;46.864;15.216;2024-03-23T19:14:10;8.90;98.60
1678;DHT22;6034;46.864;15.216;2024-03-23T19:16:36;9.00;99.00
1678;DHT22;6034;46.864;15.216;2024-03-23T19:19:05;9.00;98.80
1678;DHT22;6034;46.864;15.216;2024-03-23T19:21:32;9.00;98.00
1678;DHT22;6034;46.864;15.216;2024-03-23T19:23:59;9.00;97.50
1678;DHT22;6034;46.864;15.216;2024-03-23T19:26:26;8.90;98.20
1678;DHT22;6034;46.864;15.216;2024-03-23T19:28:54;8.90;97.40
1678;DHT22;6034;46.864;15.216;2024-03-23T19:31:20;9.00;98.60
1678;DHT22;6034;46.864;15.216;2024-03-23T19:33:47;9.00;98.40
1678;DHT22;6034;46.864;15.216;2024-03-23T19:36:16;9.00;98.60
1678;DHT22;6034;46.864;15.216;2024-03-23T19:38:45;9.00;98.90
1678;DHT22;6034;46.864;15.216;2024-03-23T19:41:11;9.10;99.50
1678;DHT22;6034;46.864;15.216;2024-03-23T19:43:39;9.10;99.90
1678;DHT22;6034;46.864;15.216;2024-03-23T19:46:05;9.00;99.90
1678;DHT22;6034;46.864;15.216;2024-03-23T19:48:32;8.40;99.90
1678;DHT22;6034;46.864;15.216;2024-03-23T19:50:59;8.80;99.90
1678;DHT22;6034;46.864;15.216;2024-03-23T19:53:29;8.80;99.90
1678;DHT22;6034;46.864;15.216;2024-03-23T19:55:55;8.50;99.90
1678;DHT22;6034;46.864;15.216;2024-03-23T19:58:23;8.70;99.90
1678;DHT22;6034;46.864;15.216;2024-03-23T20:00:49;7.60;99.90
1678;DHT22;6034;46.864;15.216;2024-03-23T20:03:17;7.20;99.90
1678;DHT22;6034;46.864;15.216;2024-03-23T20:05:43;7.30;99.90
1678;DHT22;6034;46.864;15.216;2024-03-23T20:08:11;7.20;99.90
1678;DHT22;6034;46.864;15.216;2024-03-23T20:10:46;7.70;99.90
1678;DHT22;6034;46.864;15.216;2024-03-23T20:13:13;7.80;99.90
1678;DHT22;6034;46.864;15.216;2024-03-23T20:15:40;7.50;99.90
1678;DHT22;6034;46.864;15.216;2024-03-23T20:18:09;7.10;99.90
1678;DHT22;6034;46.864;15.216;2024-03-23T20:20:35;7.00;99.90
1678;DHT22;6034;46.864;15.216;2024-03-23T20:23:04;7.00;99.90
1678;DHT22;6034;46.864;15.216;2024-03-23T20:25:30;6.70;99.90
1678;DHT22;6034;46.864;15.216;2024-03-23T20:28:01;6.90;99.90
1678;DHT22;6034;46.864;15.216;2024-03-23T20:30:29;7.40;99.90
1678;DHT22;6034;46.864;15.216;2024-03-23T20:32:56;7.40;99.90
1678;DHT22;6034;46.864;15.216;2024-03-23T20:35:22;7.40;99.90
1678;DHT22;6034;46.864;15.216;2024-03-23T20:37:50;7.40;99.90
1678;DHT22;6034;46.864;15.216;2024-03-23T20:40:16;7.50;99.90
1678;DHT22;6034;46.864;15.216;2024-03-23T20:42:44;7.60;99.90
1678;DHT22;6034;46.864;15.216;2024-03-23T20:45:11;7.50;99.90
1678;DHT22;6034;46.864;15.216;2024-03-23T20:47:40;7.30;99.90
1678;DHT22;6034;46.864;15.216;2024-03-23T20:50:07;7.50;99.90
1678;DHT22;6034;46.864;15.216;2024-03-23T20:52:35;7.50;99.90
1678;DHT22;6034;46.864;15.216;2024-03-23T20:55:02;7.40;99.90
1678;DHT22;6034;46.864;15.216;2024-03-23T20:57:30;7.40;99.90
1678;DHT22;6034;46.864;15.216;2024-03-23T20:59:56;7.40;99.90
1678;DHT22;6034;46.864;15.216;2024-03-23T21:02:25;7.40;99.90
1678;DHT22;6034;46.864;15.216;2024-03-23T21:04:51;7.30;99.90
1678;DHT22;6034;46.864;15.216;2024-03-23T21:07:19;7.20;99.90
1678;DHT22;6034;46.864;15.216;2024-03-23T21:09:45;7.20;99.90
1678;DHT22;6034;46.864;15.216;2024-03-23T21:12:12;7.30;99.90
1678;DHT22;6034;46.864;15.216;2024-03-23T21:14:38;7.30;99.90
1678;DHT22;6034;46.864;15.216;2024-03-23T21:17:06;7.20;99.90
1678;DHT22;6034;46.864;15.216;2024-03-23T21:19:35;7.20;99.90
1678;DHT22;6034;46.864;15.216;2024-03-23T21:22:02;7.20;99.90
1678;DHT22;6034;46.864;15.216;2024-03-23T21:24:29;7.20;99.90
1678;DHT22;6034;46.864;15.216;2024-03-23T21:26:56;7.00;99.90
1678;DHT22;6034;46.864;15.216;2024-03-23T21:29:23;7.10;99.90
1678;DHT22;6034;46.864;15.216;2024-03-23T21:31:50;7.10;99.90
1678;DHT22;6034;46.864;15.216;2024-03-23T21:34:16;7.20;99.90
1678;DHT22;6034;46.864;15.216;2024-03-23T21:36:45;7.00;99.90
1678;DHT22;6034;46.864;15.216;2024-03-23T21:39:12;7.10;99.90
1678;DHT22;6034;46.864;15.216;2024-03-23T21:41:40;7.00;99.90
1678;DHT22;6034;46.864;15.216;2024-03-23T21:44:08;6.80;99.90
1678;DHT22;6034;46.864;15.216;2024-03-23T21:46:36;6.90;99.90
1678;DHT22;6034;46.864;15.216;2024-03-23T21:49:03;6.90;99.90
1678;DHT22;6034;46.864;15.216;2024-03-23T21:51:30;6.80;99.90
1678;DHT22;6034;46.864;15.216;2024-03-23T21:53:59;6.70;99.90
1678;DHT22;6034;46.864;15.216;2024-03-23T21:56:28;6.80;99.90
1678;DHT22;6034;46.864;15.216;2024-03-23T21:58:57;6.80;99.90
1678;DHT22;6034;46.864;15.216;2024-03-23T22:01:25;6.80;99.90
1678;DHT22;6034;46.864;15.216;2024-03-23T22:03:52;6.60;99.90
1678;DHT22;6034;46.864;15.216;2024-03-23T22:06:19;6.60;99.90
1678;DHT22;6034;46.864;15.216;2024-03-23T22:08:46;6.30;99.90
1678;DHT22;6034;46.864;15.216;2024-03-23T22:11:15;6.40;99.90
1678;DHT22;6034;46.864;15.216;2024-03-23T22:13:41;6.40;99.90
1678;DHT22;6034;46.864;15.216;2024-03-23T22:16:10;6.50;99.90
1678;DHT22;6034;46.864;15.216;2024-03-23T22:18:36;6.50;99.90
1678;DHT22;6034;46.864;15.216;2024-03-23T22:21:04;6.30;99.90
1678;DHT22;6034;46.864;15.216;2024-03-23T22:23:31;6.40;99.90
1678;DHT22;6034;46.864;15.216;2024-03-23T22:25:58;6.50;99.90
1678;DHT22;6034;46.864;15.216;2024-03-23T22:28:26;6.50;99.90
1678;DHT22;6034;46.864;15.216;2024-03-23T22:30:54;6.50;99.90
1678;DHT22;6034;46.864;15.216;2024-03-23T22:33:21;6.50;99.90